Time;durP1;ratioP1;P1;durP2;ratioP2;P2;SDS_P1;SDS_P2;PMS_P1;PMS_P2;Temp;Humidity;BMP_temperature;BMP_pressure;BME280_temperature;BME280_humidity;BME280_pressure;Samples;Min_cycle;Max_cycle;Signal;HPM_P1;HPM_P2
2022/10/27 00:00:41;;;;;;;3.80;3.03;;;;;;;15.21;63.57;95546.50;4877013;29;20204;-83
2022/10/27 00:03:09;;;;;;;3.20;2.77;;;;;;;15.19;63.67;95549.19;4876756;29;20213;-79
2022/10/27 00:05:36;;;;;;;4.50;3.23;;;;;;;15.08;63.77;95541.69;4877429;29;20644;-78
2022/10/27 00:08:03;;;;;;;3.97;3.17;;;;;;;15.15;63.73;95549.63;4888214;29;20201;-83
2022/10/27 00:10:30;;;;;;;3.57;2.90;;;;;;;15.17;63.73;95564.00;4894106;29;20235;-81
2022/10/27 00:12:57;;;;;;;6.10;3.43;;;;;;;15.11;63.78;95548.31;4895201;29;20680;-80
2022/10/27 00:15:25;;;;;;;6.33;3.50;;;;;;;15.17;63.89;95558.03;4895009;29;20192;-79
2022/10/27 00:17:52;;;;;;;3.73;2.67;;;;;;;15.17;63.85;95558.84;4889501;29;20225;-82
2022/10/27 00:20:19;;;;;;;5.93;3.17;;;;;;;15.06;63.85;95539.25;4876858;29;20228;-82
2022/10/27 00:22:45;;;;;;;3.53;3.10;;;;;;;15.17;63.89;95560.63;4876340;29;20197;-83
2022/10/27 00:25:12;;;;;;;4.47;3.43;;;;;;;15.17;64.10;95555.47;4885362;29;20580;-82
2022/10/27 00:27:39;;;;;;;4.90;3.60;;;;;;;15.16;63.91;95559.81;4894026;29;20192;-82
2022/10/27 00:30:07;;;;;;;5.03;3.33;;;;;;;15.17;63.85;95558.03;4891963;29;20292;-83
2022/10/27 00:32:36;;;;;;;4.63;3.63;;;;;;;15.16;64.17;95561.59;4881600;29;20197;-80
2022/10/27 00:35:02;;;;;;;4.30;3.20;;;;;;;15.14;64.03;95558.31;4879976;29;20186;-81
2022/10/27 00:37:29;;;;;;;2.87;2.57;;;;;;;15.14;64.11;95556.56;4878313;29;20200;-80
2022/10/27 00:40:12;;;;;;;5.87;3.27;;;;;;;15.16;64.30;95559.00;4886276;29;20228;-84
2022/10/27 00:42:39;;;;;;;3.80;2.90;;;;;;;15.15;64.20;95567.66;4879193;29;20204;-80
2022/10/27 00:45:06;;;;;;;4.27;3.30;;;;;;;15.12;64.25;95562.81;4879099;29;20204;-80
2022/10/27 00:47:36;;;;;;;5.47;3.43;;;;;;;15.15;64.30;95570.25;4885486;29;20189;-80
2022/10/27 00:50:09;;;;;;;4.67;3.33;;;;;;;15.14;64.17;95566.88;4888400;29;20185;-78
2022/10/27 00:52:42;;;;;;;4.83;3.43;;;;;;;15.15;64.23;95576.22;4885738;29;20196;-88
2022/10/27 00:55:13;;;;;;;5.07;3.57;;;;;;;15.16;64.17;95571.91;4905328;29;20196;-80
2022/10/27 00:57:42;;;;;;;4.20;3.10;;;;;;;15.16;64.49;95579.63;4910201;29;20200;-81
2022/10/27 01:00:10;;;;;;;6.40;3.60;;;;;;;15.14;64.31;95574.59;4909031;29;20283;-79
2022/10/27 01:02:38;;;;;;;5.90;3.57;;;;;;;15.12;64.27;95571.38;4909142;29;20201;-87
2022/10/27 01:05:11;;;;;;;6.50;3.63;;;;;;;15.17;64.35;95581.25;4911311;29;20638;-86
2022/10/27 01:07:39;;;;;;;4.93;3.10;;;;;;;15.17;64.33;95583.81;4889219;29;20657;-84
2022/10/27 01:10:07;;;;;;;5.80;3.27;;;;;;;15.17;64.35;95584.63;4877332;29;20240;-85
2022/10/27 01:12:33;;;;;;;3.97;3.30;;;;;;;15.16;64.25;95597.66;4878039;29;20216;-85
2022/10/27 01:15:01;;;;;;;5.63;3.40;;;;;;;15.16;64.58;95588.16;4877107;29;20220;-83
2022/10/27 01:17:43;;;;;;;4.73;3.30;;;;;;;15.17;64.48;95588.97;4877223;29;20193;-82
2022/10/27 01:20:48;;;;;;;3.50;3.10;;;;;;;15.17;64.42;95588.97;4866285;29;20605;-86
2022/10/27 01:23:30;;;;;;;3.70;3.20;;;;;;;15.14;64.48;95589.25;4816809;29;20646;-85
2022/10/27 01:26:41;;;;;;;7.77;3.93;;;;;;;15.15;64.63;95596.81;4822660;29;20206;-81
2022/10/27 01:29:47;;;;;;;5.70;4.07;;;;;;;15.14;64.76;95592.63;4823443;29;20199;-88
2022/10/27 01:32:26;;;;;;;3.67;3.10;;;;;;;15.13;64.86;95601.31;4769014;30;20204;-87
2022/10/27 01:35:02;;;;;;;4.87;3.67;;;;;;;15.13;64.64;95596.16;4768419;29;20286;-80
2022/10/27 01:37:35;;;;;;;3.90;3.00;;;;;;;15.13;64.77;95595.34;4767862;30;20233;-83
2022/10/27 01:40:10;;;;;;;4.50;3.30;;;;;;;15.07;64.92;95589.03;4768759;30;20240;-84
2022/10/27 01:42:45;;;;;;;4.20;3.20;;;;;;;15.11;64.98;95602.41;4770673;30;20204;-83
2022/10/27 01:45:15;;;;;;;5.00;3.50;;;;;;;15.04;64.85;95592.69;4770580;30;20220;-84
2022/10/27 01:47:43;;;;;;;3.80;3.17;;;;;;;15.10;64.80;95593.88;4774454;30;20209;-77
2022/10/27 01:50:10;;;;;;;4.37;3.43;;;;;;;15.10;65.03;95593.06;4786960;30;20639;-84
2022/10/27 01:52:41;;;;;;;6.63;3.43;;;;;;;15.03;64.95;95583.34;4778838;30;20197;-81
2022/10/27 01:55:13;;;;;;;4.80;3.30;;;;;;;15.09;64.95;95591.44;4773432;30;20209;-80
2022/10/27 01:57:53;;;;;;;4.77;3.43;;;;;;;14.96;64.96;95569.41;4770702;30;20216;-81
2022/10/27 02:00:20;;;;;;;6.93;3.40;;;;;;;15.06;64.94;95579.66;4797166;29;20238;-79
2022/10/27 02:02:55;;;;;;;4.97;3.47;;;;;;;15.08;64.97;95584.69;4821067;29;20218;-82
2022/10/27 02:05:58;;;;;;;5.87;3.50;;;;;;;14.80;64.92;95538.28;4822423;29;20202;-80
2022/10/27 02:08:34;;;;;;;4.60;3.67;;;;;;;15.01;64.99;95569.78;4882404;29;20231;-81
2022/10/27 02:11:04;;;;;;;4.83;3.63;;;;;;;14.99;65.00;95565.75;4897126;29;20232;-80
2022/10/27 02:13:34;;;;;;;3.83;3.37;;;;;;;15.05;65.06;95580.63;4898872;29;20189;-78
2022/10/27 02:16:05;;;;;;;6.33;3.57;;;;;;;15.05;65.08;95575.47;4897995;29;20201;-78
2022/10/27 02:18:36;;;;;;;4.13;3.70;;;;;;;15.00;64.96;95570.75;4890533;29;20221;-81
2022/10/27 02:21:08;;;;;;;6.03;3.50;;;;;;;15.03;64.95;95575.63;4888970;29;20582;-80
2022/10/27 02:23:35;;;;;;;7.30;3.93;;;;;;;15.03;65.08;95583.34;4879772;29;20224;-81
2022/10/27 02:26:11;;;;;;;4.40;3.53;;;;;;;15.03;65.23;95592.84;4886608;29;20205;-87
2022/10/27 02:28:47;;;;;;;6.10;3.70;;;;;;;14.97;65.06;95583.09;4899482;29;20222;-78
2022/10/27 02:31:16;;;;;;;5.30;3.87;;;;;;;14.98;65.28;95595.00;4896121;29;20208;-79
2022/10/27 02:33:44;;;;;;;6.10;3.83;;;;;;;14.98;65.46;95595.00;4896399;29;20252;-80
2022/10/27 02:36:12;;;;;;;4.33;3.33;;;;;;;14.99;65.23;95596.66;4895878;29;20287;-83
2022/10/27 02:38:39;;;;;;;4.40;3.83;;;;;;;14.99;65.28;95600.03;4895933;29;20690;-80
2022/10/27 02:41:06;;;;;;;9.03;3.93;;;;;;;14.98;65.24;95607.88;4896412;29;20201;-79
2022/10/27 02:43:33;;;;;;;5.57;3.47;;;;;;;14.97;65.27;95604.50;4896759;29;20192;-80
2022/10/27 02:46:00;;;;;;;6.23;3.70;;;;;;;14.83;65.31;95589.53;4896565;29;20192;-78
2022/10/27 02:48:27;;;;;;;4.53;3.50;;;;;;;14.95;65.34;95613.34;4878674;29;20201;-78
2022/10/27 02:50:55;;;;;;;4.93;3.77;;;;;;;14.92;65.52;95611.03;4877689;29;20207;-81
2022/10/27 02:53:22;;;;;;;6.47;3.03;;;;;;;14.91;65.52;95605.09;4877330;29;20751;-78
2022/10/27 02:55:49;;;;;;;5.73;3.80;;;;;;;14.89;65.46;95603.59;4877384;29;20261;-80
2022/10/27 02:58:15;;;;;;;6.63;3.40;;;;;;;14.85;65.50;95595.31;4876773;29;20212;-81
2022/10/27 03:00:42;;;;;;;6.23;3.83;;;;;;;14.89;65.50;95612.13;4877271;29;20591;-80
2022/10/27 03:03:09;;;;;;;4.57;3.60;;;;;;;14.88;65.49;95609.69;4893109;29;20523;-80
2022/10/27 03:05:36;;;;;;;6.47;3.60;;;;;;;14.87;65.58;95613.22;4895440;29;20200;-80
2022/10/27 03:08:05;;;;;;;4.00;3.40;;;;;;;14.83;65.47;95615.28;4879791;29;20239;-79
2022/10/27 03:10:32;;;;;;;5.60;3.70;;;;;;;14.76;65.60;95602.13;4876860;29;20271;-80
2022/10/27 03:12:59;;;;;;;3.80;3.50;;;;;;;14.82;65.68;95625.72;4877107;29;20201;-79
2022/10/27 03:15:25;;;;;;;11.67;4.23;;;;;;;14.83;65.78;95625.56;4877131;29;20219;-78
2022/10/27 03:17:52;;;;;;;5.17;3.73;;;;;;;14.71;65.66;95617.19;4893171;29;20560;-83
2022/10/27 03:20:19;;;;;;;5.97;3.77;;;;;;;14.81;65.65;95632.66;4896233;29;20239;-78
2022/10/27 03:22:46;;;;;;;5.00;3.80;;;;;;;14.77;65.77;95629.53;4895931;29;20286;-80
2022/10/27 03:25:14;;;;;;;4.53;3.93;;;;;;;14.80;65.75;95633.56;4895256;29;20200;-79
2022/10/27 03:27:43;;;;;;;5.80;4.00;;;;;;;14.58;65.73;95603.81;4895722;29;20196;-79
2022/10/27 03:30:11;;;;;;;6.10;3.87;;;;;;;14.79;65.79;95631.97;4895479;29;20208;-79
2022/10/27 03:32:38;;;;;;;5.23;3.17;;;;;;;14.67;65.84;95623.59;4893088;29;20641;-79
2022/10/27 03:35:08;;;;;;;4.93;3.63;;;;;;;14.78;65.87;95643.22;4876939;29;20204;-81
2022/10/27 03:37:35;;;;;;;8.53;4.20;;;;;;;14.77;66.03;95634.69;4858086;29;20581;-80
2022/10/27 03:40:02;;;;;;;8.00;4.00;;;;;;;14.60;65.88;95607.09;4857794;29;20233;-78
2022/10/27 03:42:30;;;;;;;7.20;3.97;;;;;;;14.77;66.14;95628.72;4857796;29;20206;-81
2022/10/27 03:44:58;;;;;;;8.77;4.07;;;;;;;14.71;65.98;95624.94;4858436;29;20189;-81
2022/10/27 03:47:25;;;;;;;4.77;3.80;;;;;;;14.60;65.98;95604.50;4890978;29;20537;-82
2022/10/27 03:49:52;;;;;;;6.87;4.20;;;;;;;14.76;66.00;95634.81;4895202;29;20192;-79
2022/10/27 03:52:20;;;;;;;5.93;4.00;;;;;;;14.76;66.04;95624.50;4892723;29;20644;-84
2022/10/27 03:54:47;;;;;;;5.70;4.27;;;;;;;14.71;65.90;95619.78;4876162;29;20265;-79
2022/10/27 03:57:14;;;;;;;5.77;4.30;;;;;;;14.79;65.94;95619.09;4876580;29;20193;-81
2022/10/27 03:59:42;;;;;;;4.97;3.93;;;;;;;14.79;66.02;95619.88;4876377;29;20220;-81
2022/10/27 04:02:09;;;;;;;5.83;4.63;;;;;;;14.68;66.06;95603.78;4891639;29;20196;-80
2022/10/27 04:04:36;;;;;;;5.27;3.63;;;;;;;14.80;65.97;95634.38;4894993;29;20211;-82
2022/10/27 04:07:02;;;;;;;6.07;4.07;;;;;;;14.82;65.99;95630.88;4888990;29;20197;-81
2022/10/27 04:09:29;;;;;;;6.70;4.47;;;;;;;14.81;66.07;95630.06;4876678;29;20542;-81
2022/10/27 04:11:56;;;;;;;11.73;4.63;;;;;;;14.82;66.03;95629.09;4884395;29;20204;-81
2022/10/27 04:14:23;;;;;;;6.27;4.50;;;;;;;14.66;65.93;95601.38;4893421;29;20831;-79
2022/10/27 04:16:51;;;;;;;6.13;4.40;;;;;;;14.67;66.06;95607.31;4895175;29;20193;-80
2022/10/27 04:19:18;;;;;;;5.97;4.50;;;;;;;14.82;66.07;95636.84;4894724;29;20572;-79
2022/10/27 04:21:46;;;;;;;6.40;4.40;;;;;;;14.75;66.08;95628.03;4898030;29;20196;-77
2022/10/27 04:24:13;;;;;;;5.57;4.30;;;;;;;14.80;66.05;95639.53;4905751;29;20196;-79
2022/10/27 04:26:40;;;;;;;8.53;4.50;;;;;;;14.80;66.08;95644.69;4895363;29;20207;-80
2022/10/27 04:29:07;;;;;;;7.33;4.50;;;;;;;14.81;66.18;95648.09;4895278;29;20544;-77
2022/10/27 04:31:34;;;;;;;7.63;4.17;;;;;;;14.79;66.26;95645.66;4879623;29;20200;-80
2022/10/27 04:34:02;;;;;;;5.97;4.43;;;;;;;14.77;66.20;95647.56;4877807;29;20201;-81
2022/10/27 04:36:30;;;;;;;6.67;4.50;;;;;;;14.76;66.30;95645.09;4886525;29;20656;-81
2022/10/27 04:38:57;;;;;;;6.23;4.60;;;;;;;14.71;66.31;95644.72;4877675;29;20201;-81
2022/10/27 04:41:23;;;;;;;7.23;3.70;;;;;;;14.81;83.79;95648.09;4876193;29;20235;-80
2022/10/27 04:43:51;;;;;;;8.43;3.77;;;;;;;15.14;100.00;95644.16;4878488;29;20198;-80
2022/10/27 04:46:18;;;;;;;4.37;3.77;;;;;;;15.52;100.00;95653.47;4877536;29;20684;-80
2022/10/27 04:48:44;;;;;;;6.30;4.13;;;;;;;15.69;94.77;95653.69;4876713;29;20202;-83
2022/10/27 04:51:13;;;;;;;7.23;4.30;;;;;;;15.74;88.05;95641.97;4877959;29;20198;-81
2022/10/27 04:53:39;;;;;;;5.20;3.90;;;;;;;15.75;84.06;95653.09;4879179;29;20206;-78
2022/10/27 04:56:07;;;;;;;9.07;4.20;;;;;;;15.62;81.75;95631.97;4891793;29;20211;-79
2022/10/27 04:58:34;;;;;;;7.87;5.17;;;;;;;15.70;80.34;95652.72;4899051;29;20208;-83
2022/10/27 05:01:06;;;;;;;6.37;4.43;;;;;;;15.65;79.04;95653.16;4896488;29;20228;-81
2022/10/27 05:03:33;;;;;;;10.57;4.37;;;;;;;15.61;78.33;95656.97;4880333;29;20216;-79
2022/10/27 05:06:00;;;;;;;7.20;4.97;;;;;;;15.56;77.63;95659.97;4879486;29;20186;-82
2022/10/27 05:08:28;;;;;;;12.63;5.00;;;;;;;15.45;77.06;95660.16;4879700;29;20205;-84
2022/10/27 05:10:55;;;;;;;8.27;5.17;;;;;;;15.45;76.70;95667.06;4879899;29;20237;-79
2022/10/27 05:13:23;;;;;;;8.57;4.43;;;;;;;15.37;76.20;95666.97;4881650;29;20185;-87
2022/10/27 05:15:49;;;;;;;11.50;5.10;;;;;;;15.36;75.82;95681.63;4881578;29;20276;-86
2022/10/27 05:18:17;;;;;;;8.97;6.00;;;;;;;15.26;75.17;95679.09;4880762;29;20201;-81
2022/10/27 05:20:44;;;;;;;13.47;5.63;;;;;;;15.26;75.08;95686.03;4885826;29;20234;-81
2022/10/27 05:23:11;;;;;;;12.97;5.43;;;;;;;15.25;74.51;95697.31;4898014;29;20227;-83
2022/10/27 05:25:40;;;;;;;17.43;5.97;;;;;;;15.20;74.40;95702.06;4876324;29;20669;-79
2022/10/27 05:28:08;;;;;;;13.63;6.90;;;;;;;15.13;73.88;95694.06;4891436;29;20196;-80
2022/10/27 05:30:36;;;;;;;12.53;6.17;;;;;;;15.16;73.58;95711.03;4888087;29;20201;-88
2022/10/27 05:33:03;;;;;;;9.43;5.37;;;;;;;15.13;73.18;95708.72;4886012;29;20205;-85
2022/10/27 05:35:31;;;;;;;10.70;6.73;;;;;;;15.11;72.91;95715.78;4886995;29;20203;-85
2022/10/27 05:37:58;;;;;;;10.83;6.03;;;;;;;15.10;72.65;95721.88;4891023;29;20268;-82
2022/10/27 05:40:25;;;;;;;11.27;5.80;;;;;;;15.11;72.44;95723.50;4893232;29;20236;-86
2022/10/27 05:42:55;;;;;;;10.97;6.40;;;;;;;15.19;71.82;95741.66;4883111;29;20232;-81
2022/10/27 05:45:24;;;;;;;14.67;6.50;;;;;;;15.18;71.93;95737.47;4882563;29;20673;-88
2022/10/27 05:47:58;;;;;;;9.83;6.73;;;;;;;15.19;71.54;95736.50;4882572;29;20213;-85
2022/10/27 05:50:24;;;;;;;21.10;8.97;;;;;;;15.26;71.19;95745.31;4887794;29;20291;-80
2022/10/27 05:52:51;;;;;;;12.10;7.60;;;;;;;15.27;71.08;95754.66;4888940;29;20200;-79
2022/10/27 05:55:18;;;;;;;17.87;8.70;;;;;;;15.30;70.75;95754.38;4889177;29;20209;-88
2022/10/27 05:57:54;;;;;;;14.10;7.93;;;;;;;15.30;70.56;95755.19;4879397;29;20201;-82
2022/10/27 06:00:21;;;;;;;16.13;8.53;;;;;;;15.23;70.22;95743.81;4880993;29;20228;-84
2022/10/27 06:02:48;;;;;;;18.63;9.73;;;;;;;15.23;70.23;95743.81;4881800;29;20224;-84
2022/10/27 06:05:15;;;;;;;18.07;9.93;;;;;;;15.42;69.96;95767.91;4881272;29;20193;-86
2022/10/27 06:07:42;;;;;;;16.60;9.63;;;;;;;15.47;69.73;95765.72;4884061;29;20194;-83
2022/10/27 06:10:09;;;;;;;14.90;9.63;;;;;;;15.64;69.49;95765.00;4896945;29;20236;-87
2022/10/27 06:12:36;;;;;;;16.30;8.33;;;;;;;15.95;69.56;95767.31;4893879;29;20648;-86
2022/10/27 06:15:05;;;;;;;13.13;8.63;;;;;;;16.39;71.74;95762.28;4881437;29;20680;-86
2022/10/27 06:17:32;;;;;;;11.37;8.37;;;;;;;16.93;73.04;95761.31;4886231;29;20215;-85
2022/10/27 06:19:58;;;;;;;15.07;8.60;;;;;;;17.56;73.55;95771.38;4889910;29;20193;-84
2022/10/27 06:22:25;;;;;;;18.93;8.90;;;;;;;18.02;73.29;95734.88;4891519;29;20196;-87
2022/10/27 06:24:52;;;;;;;14.10;8.43;;;;;;;18.99;72.69;95767.06;4896840;29;20212;-86
2022/10/27 06:27:19;;;;;;;18.13;7.77;;;;;;;19.73;71.72;95770.34;4884445;29;20204;-87
2022/10/27 06:29:46;;;;;;;12.90;8.40;;;;;;;20.48;70.27;95778.47;4895707;29;20209;-85
2022/10/27 06:32:15;;;;;;;14.23;7.67;;;;;;;21.21;68.77;95773.69;4900655;29;20201;-87
2022/10/27 06:34:41;;;;;;;14.03;7.67;;;;;;;22.02;67.11;95791.06;4900751;29;20340;-84
2022/10/27 06:37:08;;;;;;;11.52;7.35;;;;;;;22.76;65.71;95792.69;4897263;29;20677;-89
2022/10/27 06:39:39;;;;;;;16.38;8.13;;;;;;;23.47;63.69;95790.06;4882177;29;20208;-86
2022/10/27 06:42:06;;;;;;;13.82;7.82;;;;;;;24.15;61.98;95779.81;4884076;29;20734;-81
2022/10/27 06:44:33;;;;;;;14.80;7.80;;;;;;;24.87;60.58;95792.31;4888243;29;20601;-90
2022/10/27 06:46:59;;;;;;;9.88;6.47;;;;;;;25.48;58.50;95792.13;4888492;29;20196;-86
2022/10/27 06:49:28;;;;;;;16.70;8.15;;;;;;;26.09;57.20;95784.94;4890878;29;20189;-82
2022/10/27 06:51:54;;;;;;;11.57;6.68;;;;;;;26.71;55.84;95794.75;4883361;29;20212;-79
2022/10/27 06:54:21;;;;;;;9.98;6.45;;;;;;;27.32;54.15;95795.16;4880796;29;20208;-79
2022/10/27 06:56:48;;;;;;;11.10;6.38;;;;;;;27.83;52.97;95791.47;4877000;29;20212;-80
2022/10/27 06:59:15;;;;;;;9.73;5.93;;;;;;;28.34;51.78;95803.41;4900167;29;20200;-79
2022/10/27 07:01:42;;;;;;;10.18;6.70;;;;;;;28.79;50.62;95798.56;4885458;29;20225;-79
2022/10/27 07:04:08;;;;;;;14.00;5.75;;;;;;;29.22;49.42;95800.19;4880989;29;20665;-78
2022/10/27 07:06:36;;;;;;;11.18;6.03;;;;;;;29.64;48.28;95806.19;4884694;29;20195;-79
2022/10/27 07:09:03;;;;;;;6.78;5.38;;;;;;;30.05;47.89;95806.25;4889634;29;20681;-83
2022/10/27 07:11:30;;;;;;;8.50;6.32;;;;;;;30.40;46.50;95808.84;4890371;29;20236;-79
2022/10/27 07:13:57;;;;;;;7.20;5.43;;;;;;;30.75;45.66;95818.50;4879428;29;20205;-79
2022/10/27 07:16:24;;;;;;;9.02;5.28;;;;;;;31.01;44.74;95823.19;4882480;29;20204;-80
2022/10/27 07:18:51;;;;;;;10.05;4.95;;;;;;;31.21;44.22;95818.22;4891684;29;20636;-79
2022/10/27 07:21:18;;;;;;;11.07;5.03;;;;;;;31.46;43.48;95817.84;4876518;29;20216;-80
2022/10/27 07:23:46;;;;;;;6.32;4.45;;;;;;;31.66;42.66;95817.38;4876644;29;20194;-81
2022/10/27 07:26:13;;;;;;;10.82;4.40;;;;;;;31.76;42.28;95819.34;4885659;29;20203;-80
2022/10/27 07:28:40;;;;;;;9.25;4.97;;;;;;;31.86;41.81;95826.66;4882822;29;20200;-83
2022/10/27 07:31:07;;;;;;;5.00;3.88;;;;;;;31.87;41.13;95833.56;4876308;29;20216;-84
2022/10/27 07:33:34;;;;;;;5.40;4.10;;;;;;;31.91;40.93;95838.13;4884022;29;20201;-83
2022/10/27 07:36:00;;;;;;;5.85;4.97;;;;;;;31.99;40.29;95847.47;4887165;29;20228;-85
2022/10/27 07:38:27;;;;;;;5.05;4.07;;;;;;;32.01;40.07;95837.44;4893129;29;20196;-83
2022/10/27 07:40:57;;;;;;;6.45;4.10;;;;;;;32.01;39.66;95839.31;4882551;29;20228;-81
2022/10/27 07:43:24;;;;;;;9.20;4.82;;;;;;;31.97;39.31;95837.13;4876221;29;20193;-79
2022/10/27 07:45:50;;;;;;;5.13;3.58;;;;;;;32.00;39.06;95838.50;4875748;29;20657;-82
2022/10/27 07:48:18;;;;;;;8.68;4.60;;;;;;;31.97;38.88;95842.44;4876153;29;20201;-79
2022/10/27 07:50:45;;;;;;;8.60;4.65;;;;;;;31.85;39.10;95833.00;4875896;29;20197;-78
2022/10/27 07:53:14;;;;;;;5.95;4.28;;;;;;;31.64;39.71;95826.56;4886274;29;20196;-82
2022/10/27 07:55:41;;;;;;;4.68;3.78;;;;;;;31.47;39.84;95842.44;4878584;29;20609;-79
2022/10/27 07:58:11;;;;;;;6.72;3.53;;;;;;;31.13;40.04;95847.72;4885690;29;20220;-80
2022/10/27 08:00:39;;;;;;;5.78;4.00;;;;;;;30.78;40.22;95844.44;4890267;29;20193;-85
2022/10/27 08:03:07;;;;;;;8.23;3.67;;;;;;;30.42;39.88;95847.16;4883057;29;20204;-84
2022/10/27 08:05:36;;;;;;;9.13;3.92;;;;;;;30.03;40.06;95827.59;4881665;29;20205;-81
2022/10/27 08:08:04;;;;;;;4.43;3.88;;;;;;;29.74;40.16;95832.78;4875147;29;20201;-79
2022/10/27 08:10:32;;;;;;;6.75;4.30;;;;;;;29.40;40.10;95826.44;4875851;29;20229;-83
2022/10/27 08:12:59;;;;;;;6.22;3.70;;;;;;;29.10;40.06;95821.25;4888485;29;20197;-79
2022/10/27 08:15:28;;;;;;;5.95;3.70;;;;;;;28.83;39.63;95825.28;4881175;29;20653;-84
2022/10/27 08:17:58;;;;;;;8.43;3.88;;;;;;;28.53;40.00;95815.53;4883773;29;20193;-81
2022/10/27 08:20:26;;;;;;;4.90;3.72;;;;;;;28.26;39.61;95823.72;4890844;29;20193;-84
2022/10/27 08:22:56;;;;;;;5.63;4.43;;;;;;;27.98;39.97;95824.28;4889037;29;20204;-80
2022/10/27 08:25:29;;;;;;;9.45;4.07;;;;;;;27.72;39.92;95821.84;4887291;29;20196;-81
2022/10/27 08:27:57;;;;;;;4.90;4.18;;;;;;;27.45;40.18;95814.22;4882906;29;20201;-85
2022/10/27 08:30:25;;;;;;;5.55;3.97;;;;;;;27.10;39.99;95798.16;4888848;29;20200;-78
2022/10/27 08:32:56;;;;;;;5.82;4.10;;;;;;;27.04;40.43;95838.38;4884585;29;20578;-79
2022/10/27 08:35:23;;;;;;;6.53;4.03;;;;;;;26.71;40.32;95810.50;4888809;29;20288;-78
2022/10/27 08:37:50;;;;;;;5.10;4.05;;;;;;;26.40;40.31;95795.50;4892847;29;20212;-78
2022/10/27 08:40:17;;;;;;;7.68;3.88;;;;;;;26.42;40.63;95822.31;4890954;29;20680;-78
2022/10/27 08:42:54;;;;;;;4.60;3.45;;;;;;;26.22;40.09;95826.84;4886323;29;20212;-86
2022/10/27 08:45:26;;;;;;;5.40;3.85;;;;;;;26.05;40.40;95825.72;4878180;29;20192;-84
2022/10/27 08:47:55;;;;;;;5.88;3.85;;;;;;;25.88;40.55;95820.09;4879089;29;20604;-82
2022/10/27 08:50:26;;;;;;;6.07;3.72;;;;;;;25.70;40.92;95816.28;4887252;29;20209;-77
2022/10/27 08:52:58;;;;;;;7.07;3.58;;;;;;;25.43;41.21;95804.19;4885235;29;20227;-77
2022/10/27 08:55:29;;;;;;;4.85;3.53;;;;;;;25.41;41.13;95816.72;4878558;29;20209;-77
2022/10/27 08:58:03;;;;;;;8.00;4.03;;;;;;;25.24;41.00;95814.50;4878946;29;20185;-82
2022/10/27 09:00:34;;;;;;;6.22;3.08;;;;;;;25.15;41.39;95825.38;4877997;29;20200;-83
2022/10/27 09:03:34;;;;;;;7.47;3.22;;;;;;;24.94;41.34;95808.81;4878204;29;20720;-82
2022/10/27 09:06:10;;;;;;;6.63;3.50;;;;;;;24.88;41.71;95814.84;4882989;29;20207;-79
2022/10/27 09:08:46;;;;;;;8.60;3.55;;;;;;;24.78;41.72;95815.25;4891641;29;20200;-80
2022/10/27 09:11:24;;;;;;;7.05;3.55;;;;;;;24.64;41.80;95813.59;4878080;29;20728;-79
2022/10/27 09:14:03;;;;;;;6.82;4.15;;;;;;;24.60;41.96;95814.97;4884427;29;20192;-79
2022/10/27 09:16:37;;;;;;;4.03;3.60;;;;;;;24.43;41.96;95808.50;4879509;29;20204;-87
2022/10/27 09:19:10;;;;;;;6.35;3.70;;;;;;;24.44;42.02;95817.97;4879100;29;20208;-82
2022/10/27 09:21:39;;;;;;;4.55;3.53;;;;;;;24.36;42.35;95811.06;4880627;29;20721;-89
2022/10/27 09:24:13;;;;;;;5.13;3.50;;;;;;;24.19;42.50;95802.75;4886998;29;20209;-86
2022/10/27 09:26:43;;;;;;;9.68;4.07;;;;;;;24.16;42.43;95802.34;4887046;29;20209;-87
2022/10/27 09:29:18;;;;;;;6.68;3.95;;;;;;;24.17;42.22;95807.34;4880349;29;20209;-86
2022/10/27 09:31:50;;;;;;;9.05;4.15;;;;;;;24.10;42.63;95801.31;4879760;29;20595;-83
2022/10/27 09:34:24;;;;;;;5.85;3.80;;;;;;;24.02;42.45;95791.81;4883727;29;20203;-82
2022/10/27 09:36:51;;;;;;;6.50;4.10;;;;;;;24.05;42.58;95801.09;4879815;29;20208;-86
2022/10/27 09:39:19;;;;;;;4.95;3.83;;;;;;;23.83;42.95;95769.00;4885079;29;20200;-89
2022/10/27 09:41:46;;;;;;;5.60;4.13;;;;;;;23.98;42.83;95801.06;4883469;29;20296;-80
2022/10/27 09:44:19;;;;;;;5.30;3.28;;;;;;;23.95;42.90;95787.56;4887619;29;20212;-79
2022/10/27 09:46:51;;;;;;;6.28;3.75;;;;;;;23.94;43.11;95792.00;4880148;29;20205;-79
2022/10/27 09:49:23;;;;;;;5.22;3.80;;;;;;;23.82;43.12;95771.81;4878935;29;20214;-80
2022/10/27 09:51:54;;;;;;;5.82;3.70;;;;;;;23.99;42.65;95791.41;4875145;29;20215;-79
2022/10/27 09:54:33;;;;;;;4.80;3.80;;;;;;;24.06;42.58;95778.38;4875125;29;20646;-78
2022/10/27 09:57:08;;;;;;;6.70;3.47;;;;;;;24.06;42.77;95781.00;4887754;29;20207;-80
2022/10/27 09:59:37;;;;;;;5.72;3.25;;;;;;;24.01;43.00;95768.50;4883967;29;20205;-80
2022/10/27 10:02:06;;;;;;;3.63;3.20;;;;;;;23.99;42.75;95773.91;4882877;29;20217;-85
2022/10/27 10:04:36;;;;;;;4.30;3.20;;;;;;;24.02;42.81;95778.75;4890549;29;20208;-80
2022/10/27 10:07:05;;;;;;;6.55;3.67;;;;;;;23.99;42.81;95768.69;4892785;29;20228;-82
2022/10/27 10:09:33;;;;;;;3.63;3.05;;;;;;;24.00;42.72;95772.09;4886898;29;20196;-80
2022/10/27 10:12:22;;;;;;;7.68;3.63;;;;;;;24.05;42.87;95774.97;4877937;29;20224;-83
2022/10/27 10:14:49;;;;;;;5.30;3.35;;;;;;;24.04;42.99;95771.50;4885312;29;20193;-81
2022/10/27 10:17:22;;;;;;;3.97;3.13;;;;;;;24.09;42.92;95772.75;4882067;29;20201;-81
2022/10/27 10:19:52;;;;;;;4.32;3.35;;;;;;;24.09;42.76;95775.34;4887312;29;20642;-81
2022/10/27 10:22:23;;;;;;;4.82;3.08;;;;;;;24.08;43.01;95779.78;4889557;29;20232;-79
2022/10/27 10:24:50;;;;;;;5.95;3.67;;;;;;;24.07;43.05;95775.56;4879070;29;20197;-79
2022/10/27 10:27:28;;;;;;;5.18;3.47;;;;;;;24.07;42.48;95772.16;4878829;29;20668;-80
2022/10/27 10:29:57;;;;;;;5.35;3.35;;;;;;;24.01;42.65;95761.47;4879670;29;20244;-81
2022/10/27 10:32:26;;;;;;;4.75;2.83;;;;;;;24.00;42.72;95759.03;4877731;29;20232;-84
2022/10/27 10:34:55;;;;;;;4.32;2.85;;;;;;;24.05;42.72;95764.50;4877773;29;20204;-87
2022/10/27 10:37:33;;;;;;;4.05;3.08;;;;;;;24.00;42.49;95756.41;4877842;29;20208;-81
2022/10/27 10:40:28;;;;;;;4.55;2.90;;;;;;;24.00;42.12;95761.66;4877258;29;20223;-82
2022/10/27 10:43:11;;;;;;;3.00;2.80;;;;;;;23.80;42.08;95734.66;4826869;29;20230;-84
2022/10/27 10:45:42;;;;;;;3.13;2.83;;;;;;;23.97;42.17;95759.44;4832486;29;20211;-86
2022/10/27 10:48:26;;;;;;;4.50;2.90;;;;;;;23.99;42.22;95760.84;4837148;29;20594;-89
2022/10/27 10:50:55;;;;;;;7.13;3.13;;;;;;;23.94;41.94;95747.56;4834714;29;20206;-87
2022/10/27 10:53:26;;;;;;;3.85;2.38;;;;;;;23.97;41.95;95752.41;4834491;29;20207;-82
2022/10/27 10:55:55;;;;;;;2.97;2.67;;;;;;;23.94;42.15;95751.97;4830782;29;20213;-84
2022/10/27 10:58:25;;;;;;;2.28;2.08;;;;;;;23.93;41.84;95748.56;4825735;29;20210;-85
2022/10/27 11:00:57;;;;;;;2.70;2.47;;;;;;;23.97;41.99;95744.56;4832677;29;20275;-82
2022/10/27 11:03:27;;;;;;;2.95;2.22;;;;;;;23.98;42.13;95750.59;4838976;29;20237;-84
2022/10/27 11:05:58;;;;;;;2.88;2.58;;;;;;;23.98;41.96;95747.97;4833471;29;21030;-85
2022/10/27 11:08:34;;;;;;;3.80;2.80;;;;;;;23.88;41.87;95726.66;4839598;29;20432;-85
2022/10/27 11:11:04;;;;;;;2.70;2.50;;;;;;;23.94;42.31;95738.91;4842613;29;20237;-80
2022/10/27 11:13:38;;;;;;;3.95;2.65;;;;;;;23.95;42.05;95735.28;4841043;29;20608;-80
2022/10/27 11:16:09;;;;;;;2.75;2.30;;;;;;;23.97;42.03;95738.53;4837991;29;20195;-83
2022/10/27 11:18:49;;;;;;;2.70;2.03;;;;;;;23.96;41.60;95735.13;4842016;29;20201;-86
2022/10/27 11:21:26;;;;;;;5.25;2.65;;;;;;;23.96;41.95;95729.91;4886514;29;20204;-84
2022/10/27 11:23:57;;;;;;;2.30;2.10;;;;;;;23.83;41.50;95708.91;4881143;29;20227;-87
2022/10/27 11:26:33;;;;;;;2.38;2.10;;;;;;;23.90;41.43;95719.41;4880071;29;20205;-85
2022/10/27 11:29:12;;;;;;;2.40;2.20;;;;;;;23.96;41.81;95729.06;4877980;29;20212;-84
2022/10/27 11:31:46;;;;;;;2.35;1.92;;;;;;;23.97;41.68;95725.47;4885953;29;20209;-89
2022/10/27 11:34:21;;;;;;;3.72;2.17;;;;;;;23.95;41.46;95723.03;4885146;29;20247;-83
2022/10/27 11:36:53;;;;;;;2.35;2.20;;;;;;;23.94;41.16;95718.00;4877394;29;20735;-86
2022/10/27 11:39:23;;;;;;;8.52;2.40;;;;;;;23.91;41.30;95711.34;4882511;29;20197;-84
2022/10/27 11:41:55;;;;;;;2.55;2.20;;;;;;;23.93;41.15;95719.81;4882827;29;20192;-82
2022/10/27 11:44:29;;;;;;;2.95;2.65;;;;;;;23.91;41.21;95721.00;4892104;29;20207;-85